Time;durP1;ratioP1;P1;durP2;ratioP2;P2;SDS_P1;SDS_P2;PMS_P1;PMS_P2;Temp;Humidity;BMP_temperature;BMP_pressure;BME280_temperature;BME280_humidity;BME280_pressure;Samples;Min_cycle;Max_cycle;Signal;HPM_P1;HPM_P2
2021/07/20 00:00:45;;;;;;;7.55;6.75;;;;;;;28.53;60.59;100532.44;144994;600;5002;-83
2021/07/20 00:03:11;;;;;;;7.07;6.30;;;;;;;28.55;61.06;100527.03;144994;711;5002;-82
2021/07/20 00:05:39;;;;;;;9.23;6.50;;;;;;;28.57;60.83;100527.81;144994;607;5002;-83
2021/07/20 00:08:09;;;;;;;9.65;6.57;;;;;;;28.59;60.67;100529.53;144994;617;5002;-83
2021/07/20 00:10:55;;;;;;;6.90;6.12;;;;;;;28.67;60.72;100517.63;144994;583;5002;-81
2021/07/20 00:13:22;;;;;;;9.43;6.57;;;;;;;28.64;60.83;100521.28;144994;565;5002;-82
2021/07/20 00:15:51;;;;;;;8.45;6.10;;;;;;;28.64;60.78;100520.44;144993;589;5002;-80
2021/07/20 00:18:33;;;;;;;8.38;6.50;;;;;;;28.65;60.79;100522.13;144994;582;5002;-81
2021/07/20 00:21:04;;;;;;;10.25;7.20;;;;;;;28.59;60.82;100524.19;144994;726;5002;-81
2021/07/20 00:23:31;;;;;;;9.38;6.90;;;;;;;28.53;60.54;100521.78;144994;718;5002;-82
2021/07/20 00:25:58;;;;;;;9.52;7.05;;;;;;;28.51;60.56;100520.12;144994;573;5002;-82
2021/07/20 00:28:25;;;;;;;9.90;6.97;;;;;;;28.49;60.31;100528.22;144994;569;5002;-81
2021/07/20 00:30:52;;;;;;;10.23;7.65;;;;;;;28.48;60.69;100525.63;144994;642;5002;-80
2021/07/20 00:33:19;;;;;;;8.98;7.15;;;;;;;28.43;60.29;100523.16;144994;619;5002;-81
2021/07/20 00:35:46;;;;;;;8.70;7.00;;;;;;;28.39;61.17;100522.41;144994;564;5002;-81
2021/07/20 00:38:15;;;;;;;8.88;7.05;;;;;;;28.38;60.90;100525.16;144994;566;5002;-83
2021/07/20 00:40:42;;;;;;;9.35;7.37;;;;;;;28.39;60.55;100517.09;144994;587;5002;-83
2021/07/20 00:43:09;;;;;;;9.57;7.28;;;;;;;28.34;60.98;100531.59;144994;613;5002;-82
2021/07/20 00:45:35;;;;;;;8.35;7.00;;;;;;;28.31;60.93;100527.25;144994;585;5002;-80
2021/07/20 00:48:03;;;;;;;9.27;7.97;;;;;;;28.22;60.82;100525.91;144994;577;5002;-82
2021/07/20 00:50:34;;;;;;;8.23;7.40;;;;;;;28.06;61.94;100524.87;144994;643;5002;-82
2021/07/20 00:53:04;;;;;;;9.43;7.53;;;;;;;27.99;61.88;100534.12;144994;613;5002;-82
2021/07/20 00:55:30;;;;;;;11.12;8.30;;;;;;;27.97;61.36;100534.19;144994;616;5002;-81
2021/07/20 00:57:58;;;;;;;10.68;8.20;;;;;;;27.94;61.34;100529.00;144994;671;5002;-83
2021/07/20 01:00:24;;;;;;;13.30;8.82;;;;;;;27.93;62.10;100529.88;144994;593;5002;-81
2021/07/20 01:02:51;;;;;;;11.70;8.77;;;;;;;27.99;61.78;100532.31;144994;569;5006;-81
2021/07/20 01:05:21;;;;;;;13.55;9.20;;;;;;;28.00;61.69;100531.38;144994;571;5002;-82
2021/07/20 01:07:48;;;;;;;10.25;8.07;;;;;;;27.99;61.58;100536.78;144994;577;5002;-82
2021/07/20 01:10:16;;;;;;;10.65;8.57;;;;;;;28.04;61.45;100532.09;144994;598;5002;-83
2021/07/20 01:12:45;;;;;;;9.20;7.65;;;;;;;27.98;61.38;100533.25;144994;576;5002;-82
2021/07/20 01:15:13;;;;;;;13.00;7.68;;;;;;;27.97;61.45;100533.31;144994;615;5002;-81
2021/07/20 01:17:42;;;;;;;7.78;6.95;;;;;;;27.88;61.77;100534.56;144994;571;5002;-81
2021/07/20 01:20:15;;;;;;;7.65;6.68;;;;;;;27.86;61.62;100528.44;144994;571;5002;-82
2021/07/20 01:22:53;;;;;;;8.35;7.15;;;;;;;27.79;62.09;100532.31;144994;668;5002;-82
2021/07/20 01:25:20;;;;;;;7.40;6.47;;;;;;;27.77;61.51;100540.38;144994;646;5002;-81
2021/07/20 01:27:51;;;;;;;7.50;6.40;;;;;;;27.72;62.34;100539.72;144994;590;5002;-82
2021/07/20 01:30:18;;;;;;;9.27;6.90;;;;;;;27.64;62.08;100537.41;144994;582;5002;-82
2021/07/20 01:32:46;;;;;;;8.35;6.82;;;;;;;27.58;62.59;100542.13;144994;583;5002;-81
2021/07/20 01:35:15;;;;;;;10.70;7.07;;;;;;;27.60;63.26;100542.94;144994;564;5002;-80
2021/07/20 01:37:44;;;;;;;8.68;6.90;;;;;;;27.65;61.96;100549.81;144994;564;5002;-82
2021/07/20 01:40:12;;;;;;;9.75;6.93;;;;;;;27.76;61.63;100541.34;144994;569;5002;-82
2021/07/20 01:42:43;;;;;;;8.18;6.70;;;;;;;27.80;61.73;100545.56;144994;574;5002;-82
2021/07/20 01:45:11;;;;;;;12.20;7.10;;;;;;;27.88;61.60;100548.75;144994;599;5002;-82
2021/07/20 01:47:39;;;;;;;9.50;7.25;;;;;;;27.86;62.00;100549.78;144994;583;5002;-82
2021/07/20 01:50:06;;;;;;;10.20;7.12;;;;;;;27.86;61.59;100563.13;144994;580;5002;-82
2021/07/20 01:52:33;;;;;;;9.20;7.22;;;;;;;27.81;61.92;100555.31;144994;583;5002;-83
2021/07/20 01:55:00;;;;;;;7.45;6.72;;;;;;;27.78;61.80;100566.13;144994;581;5002;-84
2021/07/20 01:57:27;;;;;;;7.62;6.82;;;;;;;27.71;62.31;100555.78;144994;664;5002;-83
2021/07/20 01:59:54;;;;;;;7.80;7.05;;;;;;;27.63;63.71;100562.34;144994;589;5002;-82
2021/07/20 02:02:38;;;;;;;7.80;6.50;;;;;;;27.55;63.91;100560.94;144994;563;5002;-82
2021/07/20 02:10:37;;;;;;;7.53;6.57;;;;;;;27.18;64.33;100554.50;144994;565;5002;-81
2021/07/20 02:13:16;;;;;;;7.82;6.07;;;;;;;27.09;64.41;100556.59;144994;743;5002;-84
2021/07/20 02:15:46;;;;;;;11.63;6.78;;;;;;;27.08;63.89;100562.84;144994;573;5002;-84
2021/07/20 02:18:14;;;;;;;11.12;6.30;;;;;;;27.16;63.86;100559.88;144994;632;5002;-81
2021/07/20 02:20:43;;;;;;;6.72;6.00;;;;;;;27.15;63.24;100564.34;144994;591;5002;-82
2021/07/20 02:23:10;;;;;;;7.28;6.43;;;;;;;27.19;63.16;100556.19;144994;577;5002;-83
2021/07/20 02:25:38;;;;;;;8.73;6.35;;;;;;;27.11;63.99;100557.41;144994;589;5002;-80
2021/07/20 02:28:07;;;;;;;7.30;6.60;;;;;;;27.17;63.51;100561.63;144994;592;5002;-82
2021/07/20 02:30:34;;;;;;;9.23;6.22;;;;;;;27.15;63.53;100568.78;144994;587;5002;-83
2021/07/20 02:33:02;;;;;;;8.18;6.50;;;;;;;27.06;63.55;100574.50;144994;569;5002;-82
2021/07/20 02:35:30;;;;;;;7.87;6.28;;;;;;;27.09;63.98;100569.94;144994;579;5002;-82
2021/07/20 02:37:57;;;;;;;6.93;6.22;;;;;;;27.22;63.04;100585.38;144994;571;5002;-82
2021/07/20 02:40:26;;;;;;;7.18;6.28;;;;;;;27.26;63.14;100579.87;144994;565;5002;-82
2021/07/20 02:42:56;;;;;;;8.63;6.57;;;;;;;27.38;62.32;100577.62;144994;589;5002;-81
2021/07/20 02:45:23;;;;;;;9.65;6.78;;;;;;;27.47;62.05;100580.81;144994;571;5002;-82
2021/07/20 02:47:50;;;;;;;7.68;5.90;;;;;;;27.51;62.03;100576.19;144994;578;5002;-81
2021/07/20 02:50:17;;;;;;;7.45;6.30;;;;;;;27.53;62.02;100576.13;144994;574;5002;-82
2021/07/20 02:52:47;;;;;;;7.30;6.60;;;;;;;27.58;61.68;100582.13;144994;621;5002;-83
2021/07/20 02:55:20;;;;;;;8.57;7.05;;;;;;;27.64;61.76;100579.19;144994;566;5002;-83
2021/07/20 02:57:49;;;;;;;8.75;6.37;;;;;;;27.69;61.38;100579.84;144994;604;5002;-82
2021/07/20 03:00:17;;;;;;;8.15;6.47;;;;;;;27.71;61.24;100583.31;144994;581;5002;-83
2021/07/20 03:02:45;;;;;;;7.87;6.43;;;;;;;27.75;61.35;100587.59;144994;589;5002;-81
2021/07/20 03:05:16;;;;;;;7.93;6.57;;;;;;;27.68;61.11;100587.00;144994;600;5002;-83
2021/07/20 03:07:47;;;;;;;8.40;6.10;;;;;;;27.57;61.36;100583.94;144994;587;5002;-82
2021/07/20 03:10:16;;;;;;;9.73;5.78;;;;;;;27.52;61.87;100585.91;144994;626;5002;-81
2021/07/20 03:12:46;;;;;;;8.93;6.10;;;;;;;27.53;61.68;100594.78;144994;571;5002;-82
2021/07/20 03:15:14;;;;;;;9.93;6.47;;;;;;;27.59;61.74;100594.53;144994;574;5002;-82
2021/07/20 03:17:41;;;;;;;8.95;5.90;;;;;;;27.61;61.54;100600.66;144994;594;5002;-82
2021/07/20 03:20:12;;;;;;;8.85;6.12;;;;;;;27.54;61.57;100596.50;144994;583;5002;-84
2021/07/20 03:22:42;;;;;;;8.10;6.03;;;;;;;27.61;61.77;100598.00;144994;594;5002;-82
2021/07/20 03:25:12;;;;;;;8.10;6.30;;;;;;;27.66;61.42;100603.97;144994;593;5002;-82
2021/07/20 03:27:41;;;;;;;7.78;5.85;;;;;;;27.74;61.02;100606.31;144994;592;5002;-83
2021/07/20 03:30:09;;;;;;;8.38;5.90;;;;;;;27.75;61.26;100605.41;144993;602;5002;-82
2021/07/20 03:32:37;;;;;;;7.30;5.45;;;;;;;27.70;60.61;100602.94;144994;580;5002;-84
2021/07/20 03:35:06;;;;;;;6.28;5.65;;;;;;;27.66;60.98;100609.31;144994;575;5002;-82
2021/07/20 03:37:33;;;;;;;6.40;5.80;;;;;;;27.73;60.95;100607.25;144994;574;5002;-83
2021/07/20 03:40:00;;;;;;;9.35;5.93;;;;;;;27.76;60.63;100616.00;144994;584;5002;-81
2021/07/20 03:42:27;;;;;;;6.93;6.22;;;;;;;27.74;60.67;100617.00;144994;598;5002;-83
2021/07/20 03:44:56;;;;;;;8.23;5.53;;;;;;;27.74;60.61;100620.50;144994;567;5002;-83
2021/07/20 03:47:23;;;;;;;12.23;5.87;;;;;;;27.70;60.65;100616.25;144994;569;5002;-81
2021/07/20 03:49:52;;;;;;;7.22;5.60;;;;;;;27.64;60.70;100621.84;144994;596;5002;-82
2021/07/20 03:52:23;;;;;;;7.72;5.53;;;;;;;27.53;60.25;100610.78;144994;576;5002;-81
2021/07/20 03:54:51;;;;;;;9.73;6.12;;;;;;;27.59;61.08;100610.53;144994;585;4566;-83
2021/07/20 03:57:21;;;;;;;6.40;5.65;;;;;;;27.62;60.70;100608.59;144994;598;4567;-82
2021/07/20 03:59:55;;;;;;;9.32;5.80;;;;;;;27.69;60.72;100604.72;144994;577;4572;-82
2021/07/20 04:02:24;;;;;;;6.55;5.47;;;;;;;27.75;60.42;100621.41;144992;640;6002;-82
2021/07/20 04:04:53;;;;;;;7.57;6.03;;;;;;;27.77;60.46;100624.84;144992;644;6002;-82
2021/07/20 04:07:20;;;;;;;9.85;5.93;;;;;;;27.81;60.22;100624.66;144992;680;6002;-82
2021/07/20 04:09:51;;;;;;;9.52;5.95;;;;;;;27.82;60.20;100629.06;144992;574;6002;-81
2021/07/20 04:12:18;;;;;;;7.68;6.30;;;;;;;27.85;60.20;100633.37;144992;761;6002;-81
2021/07/20 04:14:49;;;;;;;7.43;6.05;;;;;;;27.89;60.33;100632.34;144992;623;6002;-81
2021/07/20 04:17:16;;;;;;;8.02;6.07;;;;;;;27.94;59.82;100635.69;144992;578;6002;-81
2021/07/20 04:19:43;;;;;;;7.47;6.40;;;;;;;27.98;59.77;100633.75;144992;619;6002;-81
2021/07/20 04:22:10;;;;;;;13.48;6.65;;;;;;;28.02;59.66;100638.03;144992;587;6002;-82
2021/07/20 04:24:38;;;;;;;8.38;6.30;;;;;;;28.01;59.81;100639.84;144992;581;6002;-82
2021/07/20 04:27:06;;;;;;;6.95;6.15;;;;;;;28.03;59.65;100653.06;144992;609;6002;-82
2021/07/20 04:29:32;;;;;;;8.88;6.20;;;;;;;28.07;59.75;100649.34;144992;573;6002;-82
2021/07/20 04:32:03;;;;;;;8.07;6.85;;;;;;;28.08;59.74;100658.22;144992;583;6002;-82
2021/07/20 04:34:31;;;;;;;12.90;7.57;;;;;;;28.10;59.64;100667.91;144992;604;6002;-81
2021/07/20 04:37:00;;;;;;;9.52;7.35;;;;;;;28.13;60.02;100662.41;144992;653;6002;-82
2021/07/20 04:39:27;;;;;;;10.02;7.37;;;;;;;28.15;59.61;100663.22;144992;627;6002;-85
2021/07/20 04:41:54;;;;;;;14.60;9.30;;;;;;;28.17;59.76;100660.47;144992;696;6002;-82
2021/07/20 04:44:22;;;;;;;10.82;7.78;;;;;;;28.20;59.72;100660.34;144992;582;6002;-82
2021/07/20 04:46:48;;;;;;;13.30;7.78;;;;;;;28.24;59.45;100667.28;144992;582;6002;-82
2021/07/20 04:49:15;;;;;;;9.10;8.18;;;;;;;28.26;59.47;100661.88;144992;692;6002;-82
2021/07/20 04:51:45;;;;;;;8.57;7.15;;;;;;;28.30;59.44;100671.47;144992;565;6002;-82
2021/07/20 04:54:15;;;;;;;12.55;7.30;;;;;;;28.34;59.07;100668.59;144992;610;6002;-82
2021/07/20 04:56:42;;;;;;;10.23;7.50;;;;;;;28.39;59.15;100671.91;144992;612;6002;-82
2021/07/20 04:59:13;;;;;;;9.13;7.22;;;;;;;28.44;58.88;100673.50;144992;563;6002;-83
2021/07/20 05:01:44;;;;;;;11.50;6.80;;;;;;;28.48;58.86;100675.97;144992;566;6002;-83
2021/07/20 05:04:12;;;;;;;10.27;7.12;;;;;;;28.53;58.68;100671.28;144992;589;6002;-82
2021/07/20 05:06:39;;;;;;;13.40;7.75;;;;;;;28.59;58.63;100670.19;144992;680;6002;-82
2021/07/20 05:09:06;;;;;;;10.25;7.55;;;;;;;28.55;58.91;100669.41;144992;582;6002;-83
2021/07/20 05:11:35;;;;;;;11.02;7.45;;;;;;;28.57;58.62;100674.69;144992;627;6002;-84
2021/07/20 05:14:02;;;;;;;9.20;7.12;;;;;;;28.63;58.81;100678.91;144992;748;6002;-83
2021/07/20 05:16:29;;;;;;;9.20;8.30;;;;;;;28.70;58.77;100680.38;144992;709;6002;-83
2021/07/20 05:18:56;;;;;;;9.02;7.32;;;;;;;28.74;58.34;100679.28;144992;586;6002;-82
2021/07/20 05:21:23;;;;;;;10.93;7.75;;;;;;;28.76;58.37;100682.72;144992;608;6002;-82
2021/07/20 05:23:52;;;;;;;8.80;7.10;;;;;;;28.81;58.22;100679.84;144992;569;6002;-82
2021/07/20 05:26:20;;;;;;;9.35;6.28;;;;;;;28.88;58.21;100683.97;144992;569;6002;-82
2021/07/20 05:28:48;;;;;;;8.48;7.62;;;;;;;28.92;57.85;100689.09;144992;594;6002;-83
2021/07/20 05:31:15;;;;;;;8.55;6.57;;;;;;;28.95;57.62;100683.63;144992;563;6002;-82
2021/07/20 05:33:43;;;;;;;7.40;6.50;;;;;;;29.00;57.85;100685.19;144992;641;6002;-83
2021/07/20 05:36:11;;;;;;;8.18;7.32;;;;;;;29.07;57.97;100682.16;144992;591;6002;-81
2021/07/20 05:38:39;;;;;;;6.62;5.72;;;;;;;29.13;57.71;100684.53;144992;666;6002;-82
2021/07/20 05:41:05;;;;;;;7.93;6.07;;;;;;;29.19;57.36;100683.41;144992;681;6002;-81
2021/07/20 05:43:33;;;;;;;7.97;6.22;;;;;;;29.21;57.43;100681.53;144992;579;6002;-82
2021/07/20 05:46:02;;;;;;;6.57;5.45;;;;;;;29.27;57.03;100678.56;144991;619;6002;-83
2021/07/20 05:48:30;;;;;;;6.75;5.62;;;;;;;29.34;57.08;100686.28;144992;687;6002;-83
2021/07/20 05:51:01;;;;;;;7.40;6.68;;;;;;;29.35;56.95;100679.97;144992;587;6002;-80
2021/07/20 05:53:38;;;;;;;12.10;7.87;;;;;;;29.41;56.65;100679.66;144992;592;6002;-83
2021/07/20 05:56:18;;;;;;;9.95;6.32;;;;;;;29.51;56.53;100680.94;144992;569;6002;-83
2021/07/20 05:58:46;;;;;;;8.80;6.95;;;;;;;29.68;56.25;100685.44;144992;599;6002;-83
2021/07/20 06:01:13;;;;;;;7.82;6.15;;;;;;;29.81;56.66;100685.69;144992;563;6002;-82
2021/07/20 06:03:41;;;;;;;6.87;6.28;;;;;;;29.89;55.96;100683.53;144992;564;6002;-82
2021/07/20 06:06:08;;;;;;;10.30;6.47;;;;;;;29.94;55.51;100684.13;144992;622;6002;-84
2021/07/20 06:08:35;;;;;;;9.25;6.18;;;;;;;30.00;55.66;100686.50;144992;573;6002;-82
2021/07/20 06:11:04;;;;;;;7.12;6.40;;;;;;;30.07;55.59;100688.81;144992;574;6002;-83
2021/07/20 06:13:37;;;;;;;7.90;6.00;;;;;;;30.10;55.86;100694.03;144992;575;6002;-82
2021/07/20 06:16:05;;;;;;;8.05;5.85;;;;;;;30.14;56.15;100688.44;144992;563;6002;-83
2021/07/20 06:18:32;;;;;;;7.93;6.32;;;;;;;30.19;55.14;100694.44;144992;576;6002;-82
2021/07/20 06:21:02;;;;;;;10.52;7.25;;;;;;;30.21;55.37;100695.22;144992;571;6002;-83
2021/07/20 06:23:51;;;;;;;9.55;7.47;;;;;;;30.20;54.75;100697.97;144992;628;6002;-82
2021/07/20 06:26:23;;;;;;;10.98;8.13;;;;;;;29.94;53.99;100701.97;144992;592;6002;-83
2021/07/20 06:28:53;;;;;;;14.18;8.27;;;;;;;29.81;55.68;100696.41;144992;580;6002;-82
2021/07/20 06:31:22;;;;;;;12.52;7.53;;;;;;;29.65;55.49;100701.63;144992;571;6002;-83
2021/07/20 06:33:49;;;;;;;9.82;7.65;;;;;;;29.77;56.07;100695.66;144992;575;6002;-84
2021/07/20 06:36:17;;;;;;;8.85;7.35;;;;;;;29.85;56.54;100696.16;144992;563;6002;-83
2021/07/20 06:38:45;;;;;;;11.52;7.35;;;;;;;29.90;55.83;100701.28;144992;569;6002;-83
2021/07/20 06:41:12;;;;;;;12.07;8.13;;;;;;;29.89;55.78;100696.91;144992;606;6002;-83
2021/07/20 06:43:40;;;;;;;9.75;7.37;;;;;;;29.90;55.98;100695.06;144992;581;6002;-83
2021/07/20 06:46:08;;;;;;;9.48;7.25;;;;;;;29.97;55.93;100694.69;144992;622;6002;-82
2021/07/20 06:48:39;;;;;;;13.05;8.10;;;;;;;29.87;54.78;100688.06;144992;600;6002;-83
2021/07/20 06:51:06;;;;;;;14.52;8.10;;;;;;;29.78;55.34;100685.81;144992;572;6002;-84
2021/07/20 06:53:34;;;;;;;9.38;8.00;;;;;;;29.90;56.08;100689.72;144992;587;6002;-83
2021/07/20 06:56:03;;;;;;;8.95;7.03;;;;;;;29.98;55.77;100676.81;144992;591;6002;-84
2021/07/20 06:58:31;;;;;;;7.90;7.10;;;;;;;30.08;55.07;100686.06;144992;570;6002;-83
2021/07/20 07:01:00;;;;;;;8.80;7.80;;;;;;;30.14;55.34;100687.56;144992;627;6002;-80
2021/07/20 07:03:31;;;;;;;12.77;7.50;;;;;;;30.23;54.89;100686.25;144992;588;6002;-83
2021/07/20 07:06:01;;;;;;;9.07;7.65;;;;;;;30.35;55.21;100682.88;144992;609;6002;-84
2021/07/20 07:08:29;;;;;;;8.60;7.70;;;;;;;30.47;54.50;100687.63;144992;636;6002;-83
2021/07/20 07:10:58;;;;;;;9.73;7.97;;;;;;;30.44;55.21;100684.25;144992;591;6002;-82
2021/07/20 07:13:28;;;;;;;11.65;7.57;;;;;;;30.44;54.80;100684.25;144992;569;6002;-85
2021/07/20 07:15:56;;;;;;;10.23;8.05;;;;;;;30.29;52.53;100670.72;144992;574;6002;-83
2021/07/20 07:18:24;;;;;;;9.95;7.72;;;;;;;30.38;54.90;100683.63;144992;617;6002;-83
2021/07/20 07:20:52;;;;;;;11.75;8.13;;;;;;;30.49;54.79;100691.06;144992;583;6002;-83
2021/07/20 07:23:19;;;;;;;9.73;8.02;;;;;;;30.55;54.68;100688.06;144992;587;6002;-84
2021/07/20 07:25:50;;;;;;;10.93;8.05;;;;;;;30.66;54.39;100681.28;144992;589;6002;-83
2021/07/20 07:28:19;;;;;;;8.55;7.53;;;;;;;30.79;54.40;100684.97;144992;589;6002;-83
2021/07/20 07:30:50;;;;;;;11.15;7.47;;;;;;;30.74;52.39;100690.59;144992;603;6002;-83
2021/07/20 07:33:17;;;;;;;11.57;7.45;;;;;;;30.60;53.81;100693.16;144992;570;6002;-84
2021/07/20 07:35:45;;;;;;;9.13;7.32;;;;;;;30.64;53.79;100689.38;144992;605;6002;-82
2021/07/20 07:38:13;;;;;;;9.88;7.87;;;;;;;30.36;54.86;100698.00;144992;564;6002;-83
2021/07/20 07:40:40;;;;;;;11.23;8.23;;;;;;;30.32;55.39;100691.97;144992;580;6002;-83
2021/07/20 07:43:08;;;;;;;9.60;7.25;;;;;;;30.22;55.08;100701.41;144992;569;6002;-83
2021/07/20 07:45:36;;;;;;;10.70;7.50;;;;;;;29.89;55.31;100696.91;144992;572;6002;-85
2021/07/20 07:48:03;;;;;;;8.35;7.50;;;;;;;29.93;55.34;100701.13;144992;620;6002;-83
2021/07/20 07:50:30;;;;;;;11.15;7.55;;;;;;;29.89;54.43;100699.56;144992;581;6002;-81
2021/07/20 07:52:57;;;;;;;9.05;7.75;;;;;;;29.96;54.71;100700.97;144992;637;6002;-82
2021/07/20 07:55:25;;;;;;;8.13;7.32;;;;;;;29.92;54.83;100701.22;144992;654;6002;-84
2021/07/20 07:57:52;;;;;;;9.55;7.22;;;;;;;29.88;54.79;100705.00;144992;579;6002;-82
2021/07/20 08:00:19;;;;;;;8.02;7.15;;;;;;;29.92;54.21;100701.22;144992;578;6002;-83
2021/07/20 08:02:51;;;;;;;9.60;7.05;;;;;;;29.97;53.67;100696.47;144992;629;6002;-82
2021/07/20 08:05:22;;;;;;;8.27;6.18;;;;;;;29.99;53.23;100708.00;144992;563;6002;-82
2021/07/20 08:07:50;;;;;;;8.88;6.85;;;;;;;29.88;53.28;100700.50;144992;645;6002;-81
2021/07/20 08:10:18;;;;;;;6.50;5.95;;;;;;;29.78;54.09;100705.44;144992;614;6002;-82
2021/07/20 08:12:47;;;;;;;9.95;6.75;;;;;;;29.84;54.74;100698.91;144992;597;6002;-82
2021/07/20 08:15:16;;;;;;;6.82;6.20;;;;;;;29.98;53.79;100704.44;144992;625;6002;-81
2021/07/20 08:17:43;;;;;;;7.80;6.40;;;;;;;29.86;53.16;100699.72;144992;582;6002;-83
2021/07/20 08:20:13;;;;;;;6.93;6.22;;;;;;;29.85;53.80;100693.50;144992;590;6002;-84
2021/07/20 08:22:41;;;;;;;7.43;6.68;;;;;;;29.86;52.37;100699.72;144992;598;6002;-82
2021/07/20 08:25:13;;;;;;;9.52;6.95;;;;;;;29.84;52.94;100691.78;144991;564;6002;-81
2021/07/20 08:27:50;;;;;;;8.73;7.40;;;;;;;29.94;52.94;100692.16;144992;620;6002;-82
2021/07/20 08:30:20;;;;;;;7.93;6.40;;;;;;;30.24;52.79;100694.16;144992;563;6002;-84
2021/07/20 08:32:56;;;;;;;6.62;5.85;;;;;;;30.41;51.35;100698.66;144992;619;6002;-83
2021/07/20 08:35:28;;;;;;;11.05;5.97;;;;;;;30.30;51.86;100695.66;144992;595;6002;-84
2021/07/20 08:37:58;;;;;;;6.75;6.12;;;;;;;30.26;51.50;100680.69;144992;568;6002;-83
2021/07/20 08:41:09;;;;;;;7.37;6.75;;;;;;;30.09;50.79;100689.62;144992;573;6002;-80
2021/07/20 08:44:05;;;;;;;9.80;6.62;;;;;;;30.21;51.35;100697.03;144992;569;6002;-82
2021/07/20 08:47:16;;;;;;;7.43;5.95;;;;;;;30.12;51.53;100684.13;144992;566;6004;-83
2021/07/20 08:50:32;;;;;;;9.63;6.55;;;;;;;30.14;51.25;100691.09;144992;617;6002;-83
2021/07/20 08:53:36;;;;;;;7.18;5.87;;;;;;;30.19;51.66;100685.50;144992;588;6004;-84
2021/07/20 08:56:05;;;;;;;9.17;5.60;;;;;;;30.16;51.12;100691.03;144992;564;6004;-84
2021/07/20 08:58:48;;;;;;;6.35;5.40;;;;;;;30.25;51.29;100690.53;144992;568;6004;-84
2021/07/20 09:01:37;;;;;;;7.03;5.60;;;;;;;30.36;51.39;100687.31;144992;577;6004;-83
2021/07/20 09:04:20;;;;;;;6.05;5.28;;;;;;;30.52;50.47;100688.22;144992;569;6002;-83
2021/07/20 09:06:58;;;;;;;8.10;5.80;;;;;;;30.48;50.54;100693.81;144992;585;6002;-83
2021/07/20 09:09:33;;;;;;;8.15;5.68;;;;;;;30.66;49.67;100686.62;144992;627;6002;-83
2021/07/20 09:12:15;;;;;;;8.05;6.07;;;;;;;30.61;50.68;100694.03;144992;668;6002;-85
2021/07/20 09:15:07;;;;;;;6.93;5.60;;;;;;;30.61;48.58;100692.22;144992;731;6002;-82
2021/07/20 09:18:01;;;;;;;6.00;5.40;;;;;;;30.37;47.00;100691.72;144992;622;6002;-82
2021/07/20 09:20:33;;;;;;;6.45;5.07;;;;;;;30.56;48.61;100688.94;144992;679;6004;-84
2021/07/20 09:23:24;;;;;;;5.90;5.30;;;;;;;30.49;48.57;100688.37;144992;633;6004;-82
2021/07/20 09:26:10;;;;;;;6.60;5.37;;;;;;;30.63;48.38;100684.13;144992;588;6002;-84
2021/07/20 09:29:12;;;;;;;6.53;5.72;;;;;;;30.42;49.09;100681.66;144992;564;6010;-82
2021/07/20 09:32:13;;;;;;;9.90;5.30;;;;;;;30.56;48.82;100686.28;144992;576;6013;-81
2021/07/20 09:35:26;;;;;;;8.93;5.85;;;;;;;30.56;49.04;100694.31;144992;565;6002;-83
2021/07/20 09:38:36;;;;;;;6.75;6.05;;;;;;;30.80;48.78;100686.72;144992;652;6004;-83
2021/07/20 09:41:52;;;;;;;5.82;5.25;;;;;;;30.88;47.94;100691.66;144991;601;6002;-83
2021/07/20 09:44:32;;;;;;;7.90;5.30;;;;;;;30.96;47.11;100681.41;144992;653;6004;-84
2021/07/20 09:47:32;;;;;;;8.38;5.22;;;;;;;31.00;47.23;100684.78;144992;606;6004;-84
2021/07/20 09:50:16;;;;;;;7.20;5.05;;;;;;;30.85;47.37;100686.47;144992;569;6002;-82
2021/07/20 09:53:31;;;;;;;14.43;5.43;;;;;;;30.81;47.38;100684.91;144992;654;6002;-83
2021/07/20 09:56:22;;;;;;;6.47;5.18;;;;;;;30.86;48.15;100685.50;144992;614;6002;-84
2021/07/20 09:59:12;;;;;;;6.20;5.60;;;;;;;30.74;49.45;100687.91;144992;618;6002;-82
2021/07/20 10:01:53;;;;;;;6.07;5.50;;;;;;;30.74;49.92;100690.59;144992;577;6004;-82
2021/07/20 10:04:42;;;;;;;9.98;6.30;;;;;;;30.87;48.67;100692.59;144992;579;6004;-82
2021/07/20 10:08:08;;;;;;;8.50;5.93;;;;;;;30.78;49.73;100682.38;144992;635;6004;-82
2021/07/20 10:11:00;;;;;;;;;;;;;;;30.78;50.27;100682.38;144997;913;6002;-82
2021/07/20 10:13:34;;;;;;;6.00;5.43;;;;;;;30.82;50.22;100671.41;144997;571;6000;-82
2021/07/20 10:16:23;;;;;;;6.87;6.05;;;;;;;30.85;49.41;100667.72;144992;564;6002;-82
2021/07/20 10:19:33;;;;;;;7.80;6.03;;;;;;;31.07;48.40;100678.13;144993;689;6002;-82
2021/07/20 10:22:03;;;;;;;10.77;5.93;;;;;;;31.05;48.38;100664.81;144993;644;6002;-82
2021/07/20 10:24:34;;;;;;;8.50;6.37;;;;;;;30.99;48.02;100664.25;144993;698;6002;-81
2021/07/20 10:27:08;;;;;;;8.27;6.43;;;;;;;30.93;49.80;100665.47;144993;615;6002;-82
2021/07/20 10:30:10;;;;;;;6.75;6.12;;;;;;;30.93;49.36;100666.31;144993;637;6002;-82
2021/07/20 10:33:28;;;;;;;7.85;5.90;;;;;;;30.92;49.09;100664.56;144993;605;6000;-85
2021/07/20 10:36:02;;;;;;;8.80;6.70;;;;;;;30.69;49.77;100652.47;144993;594;6002;-84
2021/07/20 10:38:40;;;;;;;7.43;5.90;;;;;;;30.86;49.99;100650.66;144993;565;6002;-84
2021/07/20 10:41:10;;;;;;;7.55;6.12;;;;;;;30.74;49.53;100655.75;144993;691;6002;-83
2021/07/20 10:44:13;;;;;;;10.60;6.40;;;;;;;30.97;50.54;100653.63;144993;661;6002;-83
2021/07/20 10:46:43;;;;;;;6.62;5.45;;;;;;;30.97;50.61;100648.28;144993;679;6000;-83
2021/07/20 10:49:17;;;;;;;12.05;6.57;;;;;;;31.09;50.30;100652.94;144993;589;6002;-81
2021/07/20 10:51:47;;;;;;;10.05;6.50;;;;;;;31.18;50.70;100638.16;144992;612;6002;-83
2021/07/20 10:54:45;;;;;;;8.45;7.40;;;;;;;31.05;51.01;100642.47;144992;638;6002;-83
2021/07/20 10:57:22;;;;;;;8.23;6.18;;;;;;;31.08;50.70;100643.16;144992;710;6000;-83
2021/07/20 11:00:11;;;;;;;10.57;6.50;;;;;;;31.08;50.90;100637.78;144992;680;6000;-82
2021/07/20 11:03:13;;;;;;;8.18;5.90;;;;;;;31.11;50.38;100642.97;144992;604;6002;-84
2021/07/20 11:05:45;;;;;;;7.57;5.70;;;;;;;31.12;50.56;100633.16;144993;691;6002;-83
2021/07/20 11:08:12;;;;;;;7.70;5.95;;;;;;;31.24;50.35;100628.88;144993;602;6002;-83
2021/07/20 11:10:52;;;;;;;6.45;5.25;;;;;;;31.31;50.19;100632.94;144993;636;6002;-83
2021/07/20 11:13:40;;;;;;;11.12;6.30;;;;;;;31.35;49.98;100626.41;144993;621;6002;-83
2021/07/20 11:16:09;;;;;;;6.53;5.82;;;;;;;31.21;49.89;100627.25;144993;613;6002;-83
2021/07/20 11:18:39;;;;;;;8.20;6.28;;;;;;;31.31;50.96;100613.28;144993;573;6002;-82
2021/07/20 11:21:09;;;;;;;6.72;5.55;;;;;;;31.35;50.36;100618.38;144993;621;6002;-83
2021/07/20 11:23:41;;;;;;;6.82;5.87;;;;;;;31.49;50.85;100611.34;144993;564;6002;-82
2021/07/20 11:26:08;;;;;;;6.32;5.68;;;;;;;31.42;50.75;100613.53;144993;640;6002;-83
2021/07/20 11:28:36;;;;;;;8.13;6.20;;;;;;;31.50;50.68;100605.91;144992;632;6002;-85
2021/07/20 11:31:08;;;;;;;8.38;5.70;;;;;;;31.56;50.60;100607.34;144993;578;6002;-85
2021/07/20 11:33:47;;;;;;;9.52;5.78;;;;;;;31.46;50.55;100594.47;144993;636;6002;-83
2021/07/20 11:36:21;;;;;;;7.75;5.75;;;;;;;31.33;50.88;100596.16;144993;587;6002;-84
2021/07/20 11:38:52;;;;;;;8.77;5.80;;;;;;;31.75;50.26;100594.56;144993;697;6002;-83
2021/07/20 11:41:53;;;;;;;5.78;5.18;;;;;;;33.89;46.06;100589.72;144993;585;6002;-83
2021/07/20 11:44:58;;;;;;;5.45;4.90;;;;;;;35.78;41.11;100589.22;144993;603;6004;-82
2021/07/20 11:47:49;;;;;;;5.15;4.37;;;;;;;37.07;38.84;100590.59;144993;663;6004;-85
2021/07/20 11:50:41;;;;;;;4.50;4.10;;;;;;;38.09;35.98;100579.16;144993;736;6002;-82
2021/07/20 11:53:40;;;;;;;6.15;4.62;;;;;;;38.80;34.78;100584.53;144993;643;6002;-82
2021/07/20 11:56:26;;;;;;;7.12;5.18;;;;;;;39.22;35.25;100582.56;144994;599;5004;-82
2021/07/20 11:59:28;;;;;;;4.53;3.92;;;;;;;39.48;35.11;100591.78;144994;561;5004;-82
2021/07/20 12:02:31;;;;;;;5.47;3.87;;;;;;;39.50;33.91;100583.50;144994;567;5004;-81
2021/07/20 12:05:49;;;;;;;6.55;4.47;;;;;;;38.36;36.58;100575.00;144994;585;5004;-83
2021/07/20 12:08:52;;;;;;;5.00;4.50;;;;;;;38.86;34.80;100574.94;144993;612;5002;-82